Wetterdaten: Woche 03.07.17 - 09.07.17 (KW27)
Datum Zeit Temp. I. Temp. A. Feuchte I. Feuchte A. Luftdruck Regen Wind Richtung Sonnenschein UV Solar Taupunkt Windchill Windben
03.07.2017 00:00 25,5 C 14,9 C 53 % 84 % 1019,2 hPa 0,0 l/m 0,4 km/h (0 Bft) W-NW 0,00 h 0,0 UV-I 0 W/m 12,2 C 14,9 C 1,2 km/h (1 Bft)
03.07.2017 01:00 25,4 C 14,6 C 53 % 86 % 1019,5 hPa 0,0 l/m 0,0 km/h (0 Bft) W-NW 0,00 h 0,0 UV-I 0 W/m 12,2 C 14,6 C 0,2 km/h (0 Bft)
03.07.2017 02:00 25,3 C 14,2 C 54 % 87 % 1019,8 hPa 0,0 l/m 0,1 km/h (0 Bft) S 0,00 h 0,0 UV-I 0 W/m 12,1 C 14,2 C 0,2 km/h (0 Bft)
03.07.2017 03:00 25,3 C 13,4 C 54 % 89 % 1019,9 hPa 0,0 l/m 0,0 km/h (0 Bft) N 0,00 h 0,0 UV-I 0 W/m 11,7 C 13,4 C 0,0 km/h (0 Bft)
03.07.2017 04:00 25,2 C 13,4 C 54 % 92 % 1020,1 hPa 2,8 l/m 0,1 km/h (0 Bft) SW 0,00 h 0,0 UV-I 0 W/m 12,2 C 13,4 C 0,7 km/h (0 Bft)
03.07.2017 05:00 25,2 C 13,2 C 55 % 95 % 1020,4 hPa 0,0 l/m 0,0 km/h (0 Bft) N 0,00 h 0,0 UV-I 11 W/m 12,4 C 13,2 C 0,0 km/h (0 Bft)
03.07.2017 06:00 25,2 C 13,3 C 55 % 95 % 1020,8 hPa 0,0 l/m 0,0 km/h (0 Bft) N 0,00 h 0,0 UV-I 40 W/m 12,5 C 13,3 C 0,0 km/h (0 Bft)
03.07.2017 07:00 25,4 C 13,8 C 55 % 94 % 1021,2 hPa 0,0 l/m 0,3 km/h (0 Bft) NW 0,25 h 0,8 UV-I 144 W/m 12,8 C 13,8 C 0,6 km/h (0 Bft)
03.07.2017 08:00 25,5 C 15,0 C 56 % 88 % 1021,4 hPa 0,0 l/m 2,6 km/h (1 Bft) W-NW 0,73 h 1,3 UV-I 279 W/m 13,0 C 14,9 C 5,1 km/h (1 Bft)
03.07.2017 09:00 25,5 C 16,6 C 55 % 80 % 1021,3 hPa 0,0 l/m 2,3 km/h (1 Bft) NW 0,93 h 2,4 UV-I 534 W/m 13,0 C 16,6 C 5,2 km/h (1 Bft)
03.07.2017 10:00 25,6 C 18,2 C 53 % 68 % 1021,2 hPa 0,0 l/m 5,6 km/h (1 Bft) W-SW 1,00 h 4,1 UV-I 738 W/m 12,0 C 17,7 C 10,7 km/h (2 Bft)
03.07.2017 11:00 25,6 C 19,1 C 51 % 58 % 1021,0 hPa 0,0 l/m 6,8 km/h (2 Bft) W 0,95 h 4,9 UV-I 680 W/m 10,5 C 18,4 C 12,6 km/h (3 Bft)
03.07.2017 12:00 25,6 C 19,6 C 50 % 55 % 1020,9 hPa 0,0 l/m 7,2 km/h (2 Bft) W-SW 0,95 h 5,5 UV-I 692 W/m 10,2 C 18,9 C 14,3 km/h (3 Bft)
03.07.2017 13:00 25,6 C 20,9 C 49 % 48 % 1020,8 hPa 0,0 l/m 8,0 km/h (2 Bft) W-SW 1,00 h 6,7 UV-I 936 W/m 9,5 C 20,2 C 14,7 km/h (3 Bft)
03.07.2017 14:00 25,5 C 21,9 C 48 % 44 % 1020,5 hPa 0,0 l/m 8,0 km/h (2 Bft) W 1,00 h 6,4 UV-I 835 W/m 9,2 C 21,2 C 15,6 km/h (3 Bft)
03.07.2017 15:00 25,5 C 22,4 C 47 % 42 % 1020,0 hPa 0,0 l/m 6,8 km/h (2 Bft) W 1,00 h 5,4 UV-I 796 W/m 8,7 C 22,0 C 13,8 km/h (3 Bft)
03.07.2017 16:00 25,6 C 22,8 C 47 % 41 % 1019,7 hPa 0,0 l/m 6,5 km/h (2 Bft) W 1,00 h 3,8 UV-I 671 W/m 8,8 C 22,4 C 12,5 km/h (3 Bft)
03.07.2017 17:00 25,7 C 22,2 C 46 % 43 % 1019,2 hPa 0,0 l/m 6,1 km/h (2 Bft) W 0,85 h 2,3 UV-I 412 W/m 9,0 C 21,9 C 10,7 km/h (2 Bft)
03.07.2017 18:00 25,8 C 20,6 C 46 % 50 % 1019,1 hPa 0,0 l/m 4,8 km/h (1 Bft) W 0,00 h 0,6 UV-I 95 W/m 9,8 C 20,5 C 10,1 km/h (2 Bft)
03.07.2017 19:00 25,6 C 19,2 C 47 % 60 % 1019,3 hPa 0,0 l/m 3,5 km/h (1 Bft) W-SW 0,00 h 0,5 UV-I 62 W/m 11,2 C 18,9 C 7,7 km/h (2 Bft)
03.07.2017 20:00 25,5 C 18,8 C 47 % 62 % 1019,1 hPa 0,0 l/m 2,7 km/h (1 Bft) W-SW 0,00 h 0,0 UV-I 34 W/m 11,4 C 18,7 C 5,5 km/h (1 Bft)
03.07.2017 21:00 25,6 C 17,5 C 47 % 70 % 1019,3 hPa 0,0 l/m 0,3 km/h (0 Bft) W-SW 0,00 h 0,0 UV-I 8 W/m 11,8 C 17,5 C 0,9 km/h (0 Bft)
03.07.2017 22:00 25,6 C 15,9 C 49 % 77 % 1019,2 hPa 0,0 l/m 0,0 km/h (0 Bft) N 0,00 h 0,0 UV-I 0 W/m 11,9 C 15,9 C 0,0 km/h (0 Bft)
03.07.2017 23:00 25,4 C 14,4 C 49 % 84 % 1019,2 hPa 0,0 l/m 0,0 km/h (0 Bft) N 0,00 h 0,0 UV-I 0 W/m 11,7 C 14,4 C 0,0 km/h (0 Bft)
04.07.2017 00:00 25,3 C 14,4 C 49 % 86 % 1019,0 hPa 0,0 l/m 0,0 km/h (0 Bft) N 0,00 h 0,0 UV-I 0 W/m 12,0 C 14,4 C 0,0 km/h (0 Bft)
04.07.2017 01:00 25,2 C 14,7 C 50 % 85 % 1018,8 hPa 0,0 l/m 0,1 km/h (0 Bft) S 0,00 h 0,0 UV-I 0 W/m 12,2 C 14,7 C 0,4 km/h (0 Bft)
04.07.2017 02:00 25,2 C 15,4 C 50 % 81 % 1018,6 hPa 0,0 l/m 0,2 km/h (0 Bft) S 0,00 h 0,0 UV-I 0 W/m 12,3 C 15,4 C 1,3 km/h (1 Bft)
04.07.2017 03:00 25,2 C 15,1 C 50 % 82 % 1018,5 hPa 0,0 l/m 1,3 km/h (1 Bft) S-SW 0,00 h 0,0 UV-I 0 W/m 12,1 C 15,1 C 4,5 km/h (1 Bft)
04.07.2017 04:00 25,2 C 14,6 C 51 % 84 % 1018,5 hPa 0,0 l/m 0,0 km/h (0 Bft) N 0,00 h 0,0 UV-I 0 W/m 11,9 C 14,6 C 0,1 km/h (0 Bft)
04.07.2017 05:00 25,1 C 14,2 C 51 % 86 % 1018,7 hPa 0,0 l/m 0,0 km/h (0 Bft) N 0,00 h 0,0 UV-I 11 W/m 11,8 C 14,2 C 0,0 km/h (0 Bft)
04.07.2017 06:00 25,2 C 14,3 C 51 % 86 % 1018,9 hPa 0,0 l/m 0,1 km/h (0 Bft) S-SO 0,00 h 0,0 UV-I 44 W/m 12,0 C 14,3 C 0,4 km/h (0 Bft)
04.07.2017 07:00 25,4 C 15,0 C 51 % 84 % 1019,4 hPa 0,0 l/m 0,5 km/h (0 Bft) S-SO 0,00 h 0,6 UV-I 72 W/m 12,3 C 15,0 C 0,9 km/h (0 Bft)
04.07.2017 08:00 25,4 C 16,0 C 51 % 80 % 1019,6 hPa 0,0 l/m 1,5 km/h (1 Bft) S 0,43 h 1,0 UV-I 149 W/m 12,7 C 16,0 C 3,3 km/h (1 Bft)
04.07.2017 09:00 25,5 C 17,9 C 50 % 72 % 1019,6 hPa 0,0 l/m 3,0 km/h (1 Bft) S 1,00 h 2,5 UV-I 393 W/m 12,8 C 17,8 C 6,5 km/h (2 Bft)
04.07.2017 10:00 25,5 C 19,3 C 50 % 67 % 1019,4 hPa 0,0 l/m 4,5 km/h (1 Bft) SW 0,93 h 2,3 UV-I 320 W/m 12,9 C 19,0 C 9,3 km/h (2 Bft)
04.07.2017 11:00 25,3 C 20,1 C 48 % 59 % 1019,4 hPa 0,0 l/m 8,8 km/h (2 Bft) W-SW 1,00 h 3,3 UV-I 368 W/m 11,9 C 19,2 C 14,5 km/h (3 Bft)
04.07.2017 12:00 25,3 C 20,3 C 48 % 58 % 1019,3 hPa 0,0 l/m 5,3 km/h (1 Bft) W-SW 0,73 h 3,1 UV-I 299 W/m 11,9 C 20,0 C 11,0 km/h (2 Bft)
04.07.2017 13:00 25,4 C 21,5 C 48 % 54 % 1019,0 hPa 0,0 l/m 4,7 km/h (1 Bft) W 0,95 h 3,4 UV-I 358 W/m 11,8 C 21,2 C 10,3 km/h (2 Bft)
04.07.2017 14:00 25,5 C 22,5 C 49 % 50 % 1018,7 hPa 0,0 l/m 6,7 km/h (2 Bft) W 1,00 h 4,1 UV-I 520 W/m 11,5 C 22,1 C 13,4 km/h (3 Bft)
04.07.2017 15:00 25,6 C 23,0 C 49 % 47 % 1018,6 hPa 0,0 l/m 6,6 km/h (2 Bft) W-SW 1,00 h 3,4 UV-I 507 W/m 11,0 C 22,5 C 12,7 km/h (3 Bft)
04.07.2017 16:00 25,6 C 22,1 C 49 % 50 % 1018,6 hPa 0,0 l/m 3,5 km/h (1 Bft) W-SW 0,78 h 1,4 UV-I 172 W/m 11,2 C 21,9 C 7,9 km/h (2 Bft)
04.07.2017 17:00 25,6 C 21,9 C 49 % 54 % 1018,5 hPa 0,0 l/m 3,0 km/h (1 Bft) N-NO 0,75 h 1,4 UV-I 200 W/m 12,0 C 21,9 C 7,2 km/h (2 Bft)
04.07.2017 18:00 25,6 C 20,5 C 49 % 63 % 1018,4 hPa 0,0 l/m 2,9 km/h (1 Bft) N-NO 0,02 h 0,7 UV-I 118 W/m 13,1 C 20,4 C 6,5 km/h (2 Bft)
04.07.2017 19:00 25,7 C 20,1 C 50 % 64 % 1018,5 hPa 0,0 l/m 0,3 km/h (0 Bft) N 0,00 h 0,5 UV-I 73 W/m 13,0 C 20,1 C 0,3 km/h (0 Bft)
04.07.2017 20:00 25,6 C 19,4 C 50 % 65 % 1018,6 hPa 0,0 l/m 0,0 km/h (0 Bft) N 0,00 h 0,0 UV-I 22 W/m 12,6 C 19,4 C 0,0 km/h (0 Bft)
04.07.2017 21:00 25,6 C 17,7 C 50 % 72 % 1018,7 hPa 0,0 l/m 0,0 km/h (0 Bft) N 0,00 h 0,0 UV-I 7 W/m 12,7 C 17,7 C 0,0 km/h (0 Bft)
04.07.2017 22:00 25,6 C 15,5 C 51 % 83 % 1019,1 hPa 0,0 l/m 0,0 km/h (0 Bft) N 0,00 h 0,0 UV-I 0 W/m 12,7 C 15,5 C 0,0 km/h (0 Bft)
04.07.2017 23:00 25,5 C 13,9 C 51 % 87 % 1019,2 hPa 0,0 l/m 0,0 km/h (0 Bft) N 0,00 h 0,0 UV-I 0 W/m 11,9 C 13,9 C 0,0 km/h (0 Bft)
05.07.2017 00:00 25,3 C 12,8 C 51 % 90 % 1019,1 hPa 0,0 l/m 0,0 km/h (0 Bft) N 0,00 h 0,0 UV-I 0 W/m 11,2 C 12,8 C 0,0 km/h (0 Bft)
05.07.2017 01:00 25,2 C 11,9 C 51 % 92 % 1018,9 hPa 0,0 l/m 0,0 km/h (0 Bft) N 0,00 h 0,0 UV-I 0 W/m 10,6 C 11,9 C 0,0 km/h (0 Bft)
05.07.2017 02:00 25,2 C 11,1 C 51 % 93 % 1018,7 hPa 0,0 l/m 0,0 km/h (0 Bft) N 0,00 h 0,0 UV-I 0 W/m 10,1 C 11,1 C 0,0 km/h (0 Bft)
05.07.2017 03:00 25,1 C 10,4 C 51 % 94 % 1018,6 hPa 0,0 l/m 0,0 km/h (0 Bft) N 0,00 h 0,0 UV-I 0 W/m 9,5 C 10,4 C 0,0 km/h (0 Bft)
05.07.2017 04:00 25,1 C 10,0 C 50 % 95 % 1018,4 hPa 0,0 l/m 0,0 km/h (0 Bft) N 0,00 h 0,0 UV-I 0 W/m 9,2 C 10,0 C 0,0 km/h (0 Bft)
05.07.2017 05:00 25,0 C 9,6 C 50 % 95 % 1018,2 hPa 0,0 l/m 0,0 km/h (0 Bft) N 0,00 h 0,0 UV-I 10 W/m 8,8 C 9,6 C 0,0 km/h (0 Bft)
05.07.2017 06:00 24,9 C 10,4 C 50 % 95 % 1018,2 hPa 0,0 l/m 0,0 km/h (0 Bft) N 0,00 h 0,0 UV-I 23 W/m 9,6 C 10,4 C 0,0 km/h (0 Bft)
05.07.2017 07:00 25,1 C 13,2 C 51 % 91 % 1018,2 hPa 0,0 l/m 0,0 km/h (0 Bft) N 0,57 h 0,9 UV-I 174 W/m 11,7 C 13,2 C 0,0 km/h (0 Bft)
05.07.2017 08:00 25,3 C 17,6 C 51 % 78 % 1018,0 hPa 0,0 l/m 0,0 km/h (0 Bft) N 1,00 h 1,7 UV-I 424 W/m 13,7 C 17,6 C 0,0 km/h (0 Bft)
05.07.2017 09:00 25,3 C 20,8 C 51 % 67 % 1017,8 hPa 0,0 l/m 1,4 km/h (1 Bft) S 1,00 h 2,6 UV-I 480 W/m 14,5 C 20,8 C 1,9 km/h (1 Bft)
05.07.2017 10:00 25,2 C 23,9 C 50 % 54 % 1017,4 hPa 0,0 l/m 3,7 km/h (1 Bft) S 1,00 h 4,5 UV-I 731 W/m 13,9 C 23,8 C 5,9 km/h (2 Bft)
05.07.2017 11:00 25,2 C 24,3 C 49 % 51 % 1017,1 hPa 0,0 l/m 4,4 km/h (1 Bft) W-SW 0,83 h 4,7 UV-I 538 W/m 13,5 C 24,2 C 7,7 km/h (2 Bft)
05.07.2017 12:00 25,3 C 25,7 C 49 % 48 % 1016,9 hPa 0,0 l/m 5,2 km/h (1 Bft) W-SW 1,00 h 6,2 UV-I 794 W/m 13,8 C 25,6 C 9,5 km/h (2 Bft)
05.07.2017 13:00 25,3 C 26,0 C 49 % 46 % 1016,3 hPa 0,0 l/m 5,2 km/h (1 Bft) W-SW 0,93 h 4,9 UV-I 551 W/m 13,5 C 25,8 C 10,2 km/h (2 Bft)
05.07.2017 14:00 25,4 C 26,6 C 49 % 45 % 1015,8 hPa 0,0 l/m 6,6 km/h (2 Bft) W 0,87 h 4,9 UV-I 569 W/m 13,5 C 26,3 C 11,5 km/h (2 Bft)
05.07.2017 15:00 25,4 C 27,4 C 50 % 40 % 1015,5 hPa 0,0 l/m 8,2 km/h (2 Bft) W-SW 0,97 h 4,9 UV-I 698 W/m 12,5 C 27,0 C 14,0 km/h (3 Bft)
05.07.2017 16:00 25,5 C 27,8 C 50 % 39 % 1015,4 hPa 0,0 l/m 7,6 km/h (2 Bft) W 1,00 h 3,5 UV-I 651 W/m 12,7 C 27,4 C 14,6 km/h (3 Bft)
05.07.2017 17:00 25,7 C 27,2 C 50 % 41 % 1015,2 hPa 0,0 l/m 7,0 km/h (2 Bft) W-NW 0,77 h 2,2 UV-I 438 W/m 12,9 C 26,9 C 11,9 km/h (2 Bft)
05.07.2017 18:00 25,8 C 26,2 C 51 % 43 % 1015,0 hPa 0,0 l/m 6,8 km/h (2 Bft) W-NW 0,00 h 1,0 UV-I 80 W/m 12,6 C 25,9 C 12,1 km/h (2 Bft)
05.07.2017 19:00 25,7 C 24,5 C 51 % 50 % 1015,2 hPa 0,0 l/m 3,5 km/h (1 Bft) W-NW 0,00 h 0,6 UV-I 40 W/m 13,4 C 24,5 C 7,7 km/h (2 Bft)
05.07.2017 20:00 25,6 C 22,2 C 51 % 65 % 1015,6 hPa 0,0 l/m 2,5 km/h (1 Bft) N 0,00 h 0,0 UV-I 23 W/m 15,2 C 22,1 C 5,4 km/h (1 Bft)
05.07.2017 21:00 25,3 C 20,1 C 52 % 71 % 1016,3 hPa 0,0 l/m 1,7 km/h (1 Bft) N 0,00 h 0,0 UV-I 7 W/m 14,6 C 20,0 C 3,8 km/h (1 Bft)
05.07.2017 22:00 25,1 C 18,7 C 53 % 76 % 1016,8 hPa 0,0 l/m 0,1 km/h (0 Bft) N 0,00 h 0,0 UV-I 0 W/m 14,4 C 18,7 C 0,2 km/h (0 Bft)
05.07.2017 23:00 25,1 C 17,2 C 53 % 82 % 1017,0 hPa 0,0 l/m 0,0 km/h (0 Bft) N 0,00 h 0,0 UV-I 0 W/m 14,2 C 17,2 C 0,0 km/h (0 Bft)
06.07.2017 00:00 25,1 C 15,9 C 52 % 87 % 1017,2 hPa 0,0 l/m 0,0 km/h (0 Bft) N 0,00 h 0,0 UV-I 0 W/m 13,7 C 15,9 C 0,0 km/h (0 Bft)
06.07.2017 01:00 25,1 C 15,5 C 52 % 88 % 1017,3 hPa 0,0 l/m 0,2 km/h (0 Bft) NO 0,00 h 0,0 UV-I 0 W/m 13,5 C 15,5 C 1,0 km/h (0 Bft)
06.07.2017 02:00 25,1 C 15,0 C 52 % 89 % 1017,0 hPa 0,0 l/m 0,1 km/h (0 Bft) O-NO 0,00 h 0,0 UV-I 0 W/m 13,1 C 15,0 C 0,6 km/h (0 Bft)
06.07.2017 03:00 25,1 C 15,5 C 52 % 86 % 1017,2 hPa 0,0 l/m 0,7 km/h (0 Bft) O-NO 0,00 h 0,0 UV-I 0 W/m 13,1 C 15,5 C 1,9 km/h (1 Bft)
06.07.2017 04:00 25,2 C 14,2 C 52 % 90 % 1017,3 hPa 0,0 l/m 0,0 km/h (0 Bft) N 0,00 h 0,0 UV-I 0 W/m 12,5 C 14,2 C 0,0 km/h (0 Bft)
06.07.2017 05:00 25,0 C 13,6 C 52 % 92 % 1017,6 hPa 0,0 l/m 0,0 km/h (0 Bft) N 0,00 h 0,0 UV-I 9 W/m 12,2 C 13,6 C 0,0 km/h (0 Bft)
06.07.2017 06:00 24,9 C 13,5 C 52 % 92 % 1017,8 hPa 0,0 l/m 0,0 km/h (0 Bft) N 0,00 h 0,0 UV-I 25 W/m 12,3 C 13,5 C 0,0 km/h (0 Bft)
06.07.2017 07:00 24,9 C 14,9 C 52 % 89 % 1017,9 hPa 0,0 l/m 0,0 km/h (0 Bft) S 0,00 h 0,0 UV-I 44 W/m 13,2 C 14,9 C 0,0 km/h (0 Bft)
06.07.2017 13:00 25,7 C 29,1 C 52 % 42 % 1016,7 hPa 0,0 l/m 3,9 km/h (1 Bft) W-SW 1,88 h 6,8 UV-I 893 W/m 14,7 C 29,0 C 8,5 km/h (2 Bft)
06.07.2017 14:00 25,7 C 29,7 C 51 % 37 % 1016,6 hPa 0,0 l/m 7,1 km/h (2 Bft) W-SW 1,00 h 6,4 UV-I 844 W/m 13,5 C 29,5 C 11,9 km/h (2 Bft)
06.07.2017 15:00 25,7 C 30,1 C 51 % 37 % 1016,3 hPa 0,0 l/m 6,0 km/h (2 Bft) W-SW 0,95 h 5,0 UV-I 715 W/m 13,7 C 30,0 C 11,4 km/h (2 Bft)
06.07.2017 16:00 25,7 C 30,4 C 51 % 36 % 1015,8 hPa 0,0 l/m 6,1 km/h (2 Bft) W 1,00 h 3,7 UV-I 649 W/m 13,5 C 30,3 C 11,2 km/h (2 Bft)
06.07.2017 17:00 25,8 C 30,1 C 51 % 35 % 1015,2 hPa 0,0 l/m 5,0 km/h (1 Bft) W-NW 0,97 h 2,3 UV-I 488 W/m 13,1 C 30,0 C 8,9 km/h (2 Bft)
06.07.2017 18:00 25,8 C 28,8 C 51 % 36 % 1015,2 hPa 0,0 l/m 3,9 km/h (1 Bft) W 0,00 h 0,0 UV-I 48 W/m 12,1 C 28,7 C 7,7 km/h (2 Bft)
06.07.2017 19:00 25,8 C 27,6 C 51 % 39 % 1015,3 hPa 0,0 l/m 2,5 km/h (1 Bft) W-SW 0,00 h 0,0 UV-I 41 W/m 12,5 C 27,6 C 5,1 km/h (1 Bft)
06.07.2017 20:00 25,8 C 25,9 C 50 % 45 % 1015,3 hPa 0,0 l/m 0,1 km/h (0 Bft) W 0,00 h 0,0 UV-I 26 W/m 13,0 C 25,9 C 0,3 km/h (0 Bft)
06.07.2017 21:00 25,7 C 23,6 C 51 % 55 % 1015,4 hPa 0,0 l/m 0,0 km/h (0 Bft) N 0,00 h 0,0 UV-I 6 W/m 14,1 C 23,6 C 0,0 km/h (0 Bft)
06.07.2017 22:00 25,7 C 22,1 C 52 % 64 % 1016,0 hPa 0,0 l/m 0,0 km/h (0 Bft) N 0,00 h 0,0 UV-I 0 W/m 15,0 C 22,1 C 0,0 km/h (0 Bft)
06.07.2017 23:00 25,7 C 21,0 C 53 % 72 % 1015,8 hPa 0,0 l/m 0,1 km/h (0 Bft) SO 0,00 h 0,0 UV-I 0 W/m 15,6 C 21,0 C 0,4 km/h (0 Bft)
07.07.2017 00:00 25,6 C 20,2 C 54 % 74 % 1015,5 hPa 0,0 l/m 0,0 km/h (0 Bft) N 0,00 h 0,0 UV-I 0 W/m 15,4 C 20,2 C 0,1 km/h (0 Bft)
07.07.2017 01:00 25,5 C 19,7 C 54 % 78 % 1015,8 hPa 0,0 l/m 0,2 km/h (0 Bft) W 0,00 h 0,0 UV-I 0 W/m 15,7 C 19,7 C 0,9 km/h (0 Bft)
07.07.2017 02:00 25,4 C 18,7 C 54 % 84 % 1016,5 hPa 0,4 l/m 3,0 km/h (1 Bft) W 0,00 h 0,0 UV-I 0 W/m 16,0 C 18,3 C 6,3 km/h (2 Bft)
07.07.2017 03:00 25,3 C 17,2 C 55 % 88 % 1016,1 hPa 6,4 l/m 3,0 km/h (1 Bft) O-NO 0,00 h 0,0 UV-I 0 W/m 15,2 C 17,0 C 7,2 km/h (2 Bft)
07.07.2017 04:00 25,3 C 16,1 C 55 % 93 % 1014,1 hPa 2,8 l/m 1,0 km/h (0 Bft) SO 0,00 h 0,0 UV-I 0 W/m 15,0 C 15,9 C 1,4 km/h (1 Bft)
07.07.2017 05:00 25,3 C 16,6 C 55 % 94 % 1016,8 hPa 3,2 l/m 6,2 km/h (2 Bft) W 0,00 h 0,0 UV-I 0 W/m 15,6 C 15,6 C 12,2 km/h (2 Bft)
07.07.2017 06:00 25,3 C 16,6 C 56 % 95 % 1015,2 hPa 0,4 l/m 0,1 km/h (0 Bft) O 0,00 h 0,0 UV-I 18 W/m 15,8 C 16,6 C 0,2 km/h (0 Bft)
07.07.2017 07:00 25,4 C 16,9 C 56 % 96 % 1014,9 hPa 0,0 l/m 0,3 km/h (0 Bft) S-SO 0,27 h 0,8 UV-I 87 W/m 16,2 C 16,9 C 0,6 km/h (0 Bft)
07.07.2017 08:00 25,3 C 18,6 C 58 % 92 % 1014,5 hPa 0,0 l/m 1,1 km/h (1 Bft) S 1,00 h 1,3 UV-I 303 W/m 17,3 C 18,6 C 2,8 km/h (1 Bft)
07.07.2017 09:00 25,3 C 19,8 C 59 % 87 % 1014,8 hPa 0,0 l/m 4,5 km/h (1 Bft) S 1,00 h 2,1 UV-I 373 W/m 17,5 C 19,6 C 9,1 km/h (2 Bft)
07.07.2017 10:00 25,1 C 20,9 C 59 % 82 % 1014,3 hPa 0,0 l/m 5,2 km/h (1 Bft) S 1,00 h 3,4 UV-I 521 W/m 17,7 C 20,7 C 10,4 km/h (2 Bft)
07.07.2017 11:00 25,3 C 22,9 C 60 % 73 % 1014,5 hPa 0,0 l/m 6,4 km/h (2 Bft) S-SW 1,00 h 5,2 UV-I 736 W/m 17,7 C 22,5 C 12,5 km/h (3 Bft)
07.07.2017 12:00 25,6 C 24,7 C 57 % 63 % 1014,5 hPa 0,0 l/m 8,5 km/h (2 Bft) W-SW 1,00 h 6,0 UV-I 760 W/m 17,0 C 24,0 C 16,6 km/h (3 Bft)
07.07.2017 13:00 25,8 C 26,1 C 57 % 57 % 1014,2 hPa 0,0 l/m 9,7 km/h (2 Bft) W-SW 1,00 h 6,2 UV-I 761 W/m 16,9 C 25,4 C 19,2 km/h (3 Bft)
07.07.2017 14:00 25,8 C 26,9 C 56 % 55 % 1013,9 hPa 0,0 l/m 10,5 km/h (2 Bft) W-SW 1,00 h 5,5 UV-I 702 W/m 17,2 C 26,2 C 19,5 km/h (3 Bft)
07.07.2017 15:00 25,9 C 27,2 C 56 % 56 % 1013,5 hPa 0,0 l/m 12,2 km/h (2 Bft) W-SW 1,00 h 5,0 UV-I 747 W/m 17,6 C 26,4 C 21,6 km/h (4 Bft)
07.07.2017 16:00 26,1 C 27,5 C 56 % 54 % 1013,0 hPa 0,0 l/m 9,8 km/h (2 Bft) W-SW 1,00 h 3,5 UV-I 643 W/m 17,4 C 27,0 C 18,1 km/h (3 Bft)
07.07.2017 17:00 26,2 C 26,9 C 56 % 57 % 1012,8 hPa 0,0 l/m 7,8 km/h (2 Bft) W-SW 0,98 h 2,0 UV-I 399 W/m 17,6 C 26,5 C 15,5 km/h (3 Bft)
07.07.2017 18:00 26,2 C 26,3 C 56 % 59 % 1012,5 hPa 0,0 l/m 6,9 km/h (2 Bft) W-SW 0,03 h 1,0 UV-I 106 W/m 17,5 C 26,0 C 13,3 km/h (3 Bft)
07.07.2017 19:00 26,2 C 26,1 C 57 % 58 % 1012,2 hPa 0,0 l/m 7,3 km/h (2 Bft) W-SW 0,00 h 0,7 UV-I 49 W/m 17,3 C 25,8 C 13,4 km/h (3 Bft)
07.07.2017 20:00 26,2 C 25,4 C 57 % 58 % 1012,5 hPa 0,0 l/m 5,9 km/h (2 Bft) W 0,00 h 0,0 UV-I 27 W/m 16,6 C 25,2 C 11,5 km/h (2 Bft)
07.07.2017 21:00 26,2 C 23,8 C 56 % 65 % 1013,2 hPa 0,0 l/m 1,2 km/h (1 Bft) W-SW 0,00 h 0,0 UV-I 6 W/m 16,7 C 23,8 C 2,8 km/h (1 Bft)
07.07.2017 22:00 26,2 C 21,7 C 57 % 72 % 1013,7 hPa 0,0 l/m 0,2 km/h (0 Bft) O-NO 0,00 h 0,0 UV-I 0 W/m 16,4 C 21,7 C 0,9 km/h (0 Bft)
07.07.2017 23:00 26,1 C 19,9 C 57 % 79 % 1013,7 hPa 0,0 l/m 0,0 km/h (0 Bft) N 0,00 h 0,0 UV-I 0 W/m 16,2 C 19,9 C 0,0 km/h (0 Bft)
08.07.2017 00:00 26,0 C 18,4 C 57 % 86 % 1014,0 hPa 0,0 l/m 0,0 km/h (0 Bft) N 0,00 h 0,0 UV-I 0 W/m 15,9 C 18,4 C 0,0 km/h (0 Bft)
08.07.2017 01:00 25,9 C 17,1 C 57 % 90 % 1014,3 hPa 0,0 l/m 0,0 km/h (0 Bft) N 0,00 h 0,0 UV-I 0 W/m 15,5 C 17,1 C 0,0 km/h (0 Bft)
08.07.2017 02:00 25,8 C 16,6 C 57 % 91 % 1014,6 hPa 0,0 l/m 0,0 km/h (0 Bft) N 0,00 h 0,0 UV-I 0 W/m 15,2 C 16,6 C 0,0 km/h (0 Bft)
08.07.2017 03:00 25,8 C 15,9 C 57 % 93 % 1014,6 hPa 0,0 l/m 0,0 km/h (0 Bft) N 0,00 h 0,0 UV-I 0 W/m 14,8 C 15,9 C 0,0 km/h (0 Bft)
08.07.2017 04:00 25,7 C 15,2 C 57 % 94 % 1014,6 hPa 0,0 l/m 0,0 km/h (0 Bft) N 0,00 h 0,0 UV-I 0 W/m 14,2 C 15,2 C 0,0 km/h (0 Bft)
08.07.2017 05:00 25,7 C 14,7 C 57 % 95 % 1014,7 hPa 0,0 l/m 0,0 km/h (0 Bft) N 0,00 h 0,0 UV-I 9 W/m 13,9 C 14,7 C 0,0 km/h (0 Bft)
08.07.2017 06:00 25,7 C 15,4 C 57 % 95 % 1014,8 hPa 0,0 l/m 0,0 km/h (0 Bft) N 0,00 h 0,0 UV-I 25 W/m 14,6 C 15,4 C 0,0 km/h (0 Bft)
08.07.2017 07:00 25,7 C 17,6 C 57 % 90 % 1014,8 hPa 0,0 l/m 0,0 km/h (0 Bft) N 0,53 h 0,9 UV-I 164 W/m 16,0 C 17,6 C 0,0 km/h (0 Bft)
08.07.2017 08:00 25,9 C 21,4 C 58 % 80 % 1014,7 hPa 0,0 l/m 1,0 km/h (0 Bft) S 1,00 h 1,6 UV-I 417 W/m 17,8 C 21,4 C 3,2 km/h (1 Bft)
08.07.2017 09:00 25,9 C 23,3 C 58 % 69 % 1014,7 hPa 0,0 l/m 5,6 km/h (1 Bft) W-SW 0,95 h 2,5 UV-I 483 W/m 17,2 C 22,9 C 11,1 km/h (2 Bft)
08.07.2017 10:00 25,8 C 24,7 C 57 % 60 % 1014,5 hPa 0,0 l/m 7,3 km/h (2 Bft) W 1,00 h 3,7 UV-I 567 W/m 16,4 C 24,2 C 14,2 km/h (3 Bft)
08.07.2017 11:00 25,8 C 26,1 C 56 % 52 % 1014,5 hPa 0,0 l/m 10,1 km/h (2 Bft) W-SW 1,00 h 5,2 UV-I 730 W/m 15,5 C 25,3 C 18,0 km/h (3 Bft)
08.07.2017 12:00 25,8 C 26,3 C 56 % 48 % 1014,4 hPa 0,0 l/m 9,0 km/h (2 Bft) W 1,00 h 4,8 UV-I 589 W/m 14,5 C 25,8 C 16,2 km/h (3 Bft)
08.07.2017 13:00 26,0 C 27,3 C 55 % 45 % 1014,2 hPa 0,0 l/m 13,5 km/h (3 Bft) W-SW 1,00 h 6,1 UV-I 761 W/m 14,4 C 26,3 C 23,2 km/h (4 Bft)
08.07.2017 14:00 26,1 C 28,0 C 53 % 43 % 1013,8 hPa 0,0 l/m 15,0 km/h (3 Bft) W-NW 1,00 h 6,2 UV-I 804 W/m 14,3 C 27,0 C 25,5 km/h (4 Bft)
08.07.2017 15:00 26,2 C 28,5 C 52 % 40 % 1013,4 hPa 0,0 l/m 16,4 km/h (3 Bft) W-SW 1,00 h 5,0 UV-I 707 W/m 13,6 C 27,5 C 27,8 km/h (4 Bft)
08.07.2017 16:00 26,4 C 28,2 C 51 % 43 % 1013,1 hPa 0,0 l/m 9,2 km/h (2 Bft) W-NW 0,90 h 3,2 UV-I 496 W/m 14,2 C 27,7 C 15,6 km/h (3 Bft)
08.07.2017 17:00 27,0 C 27,9 C 48 % 42 % 1012,7 hPa 0,0 l/m 9,2 km/h (2 Bft) W-NW 0,58 h 2,0 UV-I 356 W/m 13,6 C 27,4 C 16,3 km/h (3 Bft)
08.07.2017 18:00 26,9 C 27,0 C 47 % 41 % 1012,6 hPa 0,0 l/m 7,8 km/h (2 Bft) W-NW 0,00 h 1,0 UV-I 88 W/m 12,8 C 26,7 C 13,7 km/h (3 Bft)
08.07.2017 19:00 26,8 C 26,3 C 48 % 43 % 1012,7 hPa 0,0 l/m 5,5 km/h (1 Bft) W 0,00 h 0,0 UV-I 39 W/m 12,8 C 26,2 C 10,8 km/h (2 Bft)
08.07.2017 20:00 26,8 C 24,4 C 49 % 54 % 1013,2 hPa 0,0 l/m 2,4 km/h (1 Bft) N 0,00 h 0,0 UV-I 23 W/m 14,3 C 24,3 C 5,2 km/h (1 Bft)
08.07.2017 21:00 26,9 C 21,8 C 51 % 67 % 1014,0 hPa 0,0 l/m 1,2 km/h (1 Bft) N 0,00 h 0,0 UV-I 7 W/m 15,5 C 21,8 C 1,0 km/h (0 Bft)
08.07.2017 22:00 26,9 C 20,7 C 52 % 72 % 1014,3 hPa 0,0 l/m 0,0 km/h (0 Bft) N 0,00 h 0,0 UV-I 0 W/m 15,5 C 20,7 C 0,0 km/h (0 Bft)
08.07.2017 23:00 26,6 C 19,9 C 53 % 77 % 1014,2 hPa 0,0 l/m 0,0 km/h (0 Bft) N 0,00 h 0,0 UV-I 0 W/m 15,8 C 19,9 C 0,0 km/h (0 Bft)
09.07.2017 00:00 26,4 C 19,3 C 53 % 80 % 1013,9 hPa 0,0 l/m 0,1 km/h (0 Bft) O-SO 0,00 h 0,0 UV-I 0 W/m 15,7 C 19,3 C 0,5 km/h (0 Bft)
09.07.2017 01:00 26,2 C 18,5 C 54 % 81 % 1013,6 hPa 0,0 l/m 0,0 km/h (0 Bft) N 0,00 h 0,0 UV-I 0 W/m 15,3 C 18,5 C 0,1 km/h (0 Bft)
09.07.2017 02:00 26,2 C 17,9 C 54 % 83 % 1013,5 hPa 0,0 l/m 0,0 km/h (0 Bft) N 0,00 h 0,0 UV-I 0 W/m 15,0 C 17,9 C 0,1 km/h (0 Bft)
09.07.2017 03:00 26,1 C 16,8 C 54 % 88 % 1013,2 hPa 0,0 l/m 0,0 km/h (0 Bft) N 0,00 h 0,0 UV-I 0 W/m 14,8 C 16,8 C 0,0 km/h (0 Bft)
09.07.2017 04:00 26,1 C 16,4 C 54 % 90 % 1012,7 hPa 0,0 l/m 0,0 km/h (0 Bft) N 0,00 h 0,0 UV-I 0 W/m 14,7 C 16,4 C 0,0 km/h (0 Bft)
09.07.2017 05:00 26,0 C 16,5 C 54 % 90 % 1012,8 hPa 0,0 l/m 0,0 km/h (0 Bft) N 0,00 h 0,0 UV-I 10 W/m 15,0 C 16,5 C 0,0 km/h (0 Bft)
09.07.2017 06:00 25,9 C 17,1 C 54 % 90 % 1012,9 hPa 0,0 l/m 0,0 km/h (0 Bft) N 0,00 h 0,0 UV-I 52 W/m 15,5 C 17,1 C 0,1 km/h (0 Bft)
09.07.2017 07:00 26,1 C 19,1 C 55 % 83 % 1012,6 hPa 0,0 l/m 0,0 km/h (0 Bft) N 0,55 h 0,8 UV-I 184 W/m 16,1 C 19,1 C 0,0 km/h (0 Bft)
09.07.2017 08:00 26,3 C 22,1 C 55 % 73 % 1012,4 hPa 0,0 l/m 0,0 km/h (0 Bft) N 1,00 h 1,7 UV-I 419 W/m 17,1 C 22,1 C 0,0 km/h (0 Bft)
09.07.2017 09:00 26,5 C 24,2 C 56 % 71 % 1012,3 hPa 0,0 l/m 3,1 km/h (1 Bft) S 1,00 h 2,9 UV-I 590 W/m 18,5 C 24,1 C 5,9 km/h (2 Bft)
09.07.2017 10:00 26,4 C 25,1 C 58 % 68 % 1012,4 hPa 0,0 l/m 6,5 km/h (2 Bft) S 1,00 h 4,5 UV-I 715 W/m 18,8 C 24,8 C 11,2 km/h (2 Bft)
09.07.2017 11:00 26,6 C 26,0 C 58 % 63 % 1012,0 hPa 0,0 l/m 4,5 km/h (1 Bft) W-SW 1,00 h 4,9 UV-I 542 W/m 18,5 C 25,9 C 9,1 km/h (2 Bft)
09.07.2017 12:00 26,9 C 28,0 C 56 % 53 % 1011,6 hPa 0,0 l/m 6,4 km/h (2 Bft) W-SW 1,00 h 6,8 UV-I 833 W/m 17,4 C 27,8 C 11,8 km/h (2 Bft)
09.07.2017 13:00 27,2 C 28,7 C 53 % 46 % 1011,2 hPa 0,0 l/m 5,5 km/h (1 Bft) W-SW 1,00 h 6,8 UV-I 715 W/m 15,8 C 28,6 C 11,1 km/h (2 Bft)
09.07.2017 14:00 27,1 C 29,6 C 52 % 40 % 1010,8 hPa 0,0 l/m 6,3 km/h (2 Bft) W-SW 1,00 h 6,5 UV-I 831 W/m 14,5 C 29,5 C 11,8 km/h (2 Bft)
09.07.2017 15:00 27,4 C 28,8 C 50 % 42 % 1010,4 hPa 0,0 l/m 7,0 km/h (2 Bft) W-SW 1,00 h 4,3 UV-I 507 W/m 14,8 C 28,6 C 13,2 km/h (3 Bft)
09.07.2017 16:00 27,3 C 28,7 C 50 % 44 % 1010,1 hPa 0,0 l/m 6,1 km/h (2 Bft) W-SW 1,00 h 3,0 UV-I 421 W/m 15,1 C 28,5 C 11,7 km/h (2 Bft)
09.07.2017 17:00 27,5 C 28,1 C 50 % 47 % 1009,7 hPa 0,0 l/m 5,3 km/h (1 Bft) W 0,93 h 1,9 UV-I 308 W/m 15,6 C 27,9 C 9,7 km/h (2 Bft)
09.07.2017 18:00 27,4 C 27,2 C 51 % 50 % 1009,3 hPa 0,0 l/m 4,3 km/h (1 Bft) W-SW 0,38 h 0,9 UV-I 138 W/m 15,8 C 27,2 C 8,1 km/h (2 Bft)
09.07.2017 19:00 27,4 C 26,4 C 51 % 53 % 1009,4 hPa 0,0 l/m 2,3 km/h (1 Bft) S 0,00 h 0,5 UV-I 51 W/m 16,0 C 26,4 C 5,0 km/h (1 Bft)
09.07.2017 20:00 27,2 C 23,8 C 53 % 68 % 1009,6 hPa 0,8 l/m 2,8 km/h (1 Bft) S 0,00 h 0,0 UV-I 16 W/m 17,4 C 23,8 C 5,5 km/h (1 Bft)
09.07.2017 21:00 27,1 C 23,0 C 55 % 69 % 1009,6 hPa 0,0 l/m 0,2 km/h (0 Bft) S 0,00 h 0,0 UV-I 5 W/m 17,0 C 23,0 C 0,5 km/h (0 Bft)
09.07.2017 22:00 27,1 C 21,2 C 56 % 82 % 1009,2 hPa 0,0 l/m 0,0 km/h (0 Bft) N 0,00 h 0,0 UV-I 0 W/m 17,9 C 21,2 C 0,0 km/h (0 Bft)
09.07.2017 23:00 26,9 C 20,2 C 56 % 85 % 1009,3 hPa 0,0 l/m 0,0 km/h (0 Bft) N 0,00 h 0,0 UV-I 0 W/m 17,6 C 20,2 C 0,0 km/h (0 Bft)
Min-Datum _ 05.07.17 04.07.17 03.07.17 06.07.17 09.07.17 - 03.07.17 - - - - 03.07.17 05.07.17 03.07.17
_ Min-Zeit 06:03 07:05 17:08 16:46 22:37 - 00:00 - - - - 16:01 05:23 00:00
Minimum _ 24,9 C 0,0 C 46 % 32 % 1009,1 hPa - 0,0 km/h (0 Bft) - - - - 7,0 C 9,3 C 0,0 km/h (0 Bft)
Max-Datum _ 09.07.17 06.07.17 07.07.17 03.07.17 03.07.17 07.07.17 08.07.17 - 06.07.17 09.07.17 08.07.17 09.07.17 06.07.17 08.07.17
_ Max-Zeit 17:19 16:26 10:18 05:53 08:38 03:55 15:13 - 13:06 13:11 12:58 10:22 15:18 15:13
Maximum _ 27,5 C 30,9 C 60 % 96 % 1021,5 hPa 6,4 l/m 32,2 km/h
W-SW (5 Bft)
- 1,00 h 7,7 UV-I 1187 W/m 19,7 C 30,8 C 48,3 km/h
W-SW (6 Bft)
Durchschnitt _ 25,8 C 20,5 C 52 % 69 % 1016,0 hPa #16,8 l/m 3,1 km/h (1 Bft) W-SW #65:07 h 3,3 UV-I 349 W/m 13,9 C 20,3 C 6,0 km/h (2 Bft)